createdAt,value
2022-11-17T00:00:27.556Z,13.05
2022-11-17T00:02:54.311Z,14.07
2022-11-17T00:05:21.090Z,13.20
2022-11-17T00:07:48.963Z,14.77
2022-11-17T00:10:17.113Z,10.85
2022-11-17T00:13:02.818Z,12.70
2022-11-17T00:15:29.573Z,13.95
2022-11-17T00:18:14.689Z,13.85
2022-11-17T00:21:00.749Z,13.85
2022-11-17T00:23:47.040Z,16.05
2022-11-17T00:26:20.602Z,14.02
2022-11-17T00:28:47.901Z,11.88
2022-11-17T00:31:33.733Z,13.30
2022-11-17T00:34:06.589Z,16.13
2022-11-17T00:37:07.049Z,12.75
2022-11-17T00:39:34.196Z,16.65
2022-11-17T00:42:00.766Z,16.15
2022-11-17T00:44:27.709Z,11.52
2022-11-17T00:46:54.290Z,14.20
2022-11-17T00:49:21.570Z,14.43
2022-11-17T00:51:48.358Z,13.30
2022-11-17T00:54:15.364Z,14.18
2022-11-17T00:56:42.039Z,10.82
2022-11-17T00:59:08.989Z,12.95
2022-11-17T01:01:36.558Z,12.00
2022-11-17T01:04:04.096Z,12.02
2022-11-17T01:06:33.993Z,13.00
2022-11-17T01:09:02.304Z,13.77
2022-11-17T01:11:29.401Z,15.98
2022-11-17T01:13:58.126Z,11.48
2022-11-17T01:16:25.178Z,13.07
2022-11-17T01:18:52.492Z,11.35
2022-11-17T01:21:24.664Z,11.00
2022-11-17T01:23:54.370Z,11.07
2022-11-17T01:26:24.071Z,12.32
2022-11-17T01:28:51.593Z,12.60
2022-11-17T01:31:21.276Z,10.45
2022-11-17T01:33:48.962Z,9.35
2022-11-17T01:36:18.897Z,10.50
2022-11-17T01:38:45.575Z,10.27
2022-11-17T01:41:21.323Z,11.05
2022-11-17T01:43:50.661Z,13.32
2022-11-17T01:46:29.316Z,11.73
2022-11-17T01:49:19.743Z,13.95
2022-11-17T01:51:50.418Z,11.25
2022-11-17T01:54:21.893Z,11.10
2022-11-17T01:56:53.931Z,11.25
2022-11-17T01:59:31.081Z,13.43
2022-11-17T02:01:58.519Z,12.07
2022-11-17T02:04:35.175Z,13.82
2022-11-17T02:07:07.867Z,12.35
2022-11-17T02:09:37.646Z,13.35
2022-11-17T02:12:06.052Z,11.27
2022-11-17T02:14:32.877Z,12.40
2022-11-17T02:17:06.298Z,14.48
2022-11-17T02:19:42.279Z,11.85
2022-11-17T02:22:33.653Z,14.05
2022-11-17T02:25:27.937Z,13.43
2022-11-17T02:28:09.956Z,12.95
2022-11-17T02:30:55.441Z,11.65
2022-11-17T02:33:21.992Z,12.15
2022-11-17T02:35:56.154Z,12.73
2022-11-17T02:38:32.961Z,12.50
2022-11-17T02:41:09.411Z,12.65
2022-11-17T02:44:11.298Z,11.38
2022-11-17T02:46:46.825Z,11.05
2022-11-17T02:49:25.713Z,13.00
2022-11-17T02:54:23.793Z,14.07
2022-11-17T02:56:50.400Z,12.68
2022-11-17T02:59:22.078Z,11.98
2022-11-17T03:01:51.710Z,12.70
2022-11-17T03:04:41.746Z,14.40
2022-11-17T03:07:34.826Z,11.60
2022-11-17T03:10:10.060Z,15.35
2022-11-17T03:13:00.381Z,14.65
2022-11-17T03:15:27.100Z,13.63
2022-11-17T03:18:07.752Z,13.00
2022-11-17T03:20:42.587Z,12.68
2022-11-17T03:23:19.209Z,11.00
2022-11-17T03:25:51.771Z,14.07
2022-11-17T03:30:48.537Z,11.38
2022-11-17T03:33:19.683Z,12.85
2022-11-17T03:35:54.408Z,12.90
2022-11-17T03:38:24.803Z,15.32
2022-11-17T03:40:55.283Z,11.45
2022-11-17T03:43:24.833Z,11.95
2022-11-17T03:45:55.282Z,11.48
2022-11-17T03:48:59.823Z,9.25
2022-11-17T03:51:30.605Z,9.73
2022-11-17T03:53:57.651Z,11.50
2022-11-17T03:56:53.002Z,10.00
2022-11-17T03:59:37.839Z,10.73
2022-11-17T04:02:05.132Z,11.70
2022-11-17T04:04:51.709Z,9.63
2022-11-17T04:07:18.354Z,11.50
2022-11-17T04:09:44.992Z,10.38
2022-11-17T04:12:30.443Z,9.15
2022-11-17T04:15:26.374Z,9.85
2022-11-17T04:17:53.012Z,10.32
2022-11-17T04:20:19.603Z,10.88
2022-11-17T04:22:46.211Z,9.85
2022-11-17T04:25:32.755Z,8.88
2022-11-17T04:28:18.128Z,9.15
2022-11-17T04:30:44.717Z,10.20
2022-11-17T04:33:11.311Z,9.10
2022-11-17T04:35:37.981Z,8.13
2022-11-17T04:38:04.729Z,11.05
2022-11-17T04:40:51.955Z,10.80
2022-11-17T04:43:18.542Z,7.88
2022-11-17T04:45:45.106Z,8.20
2022-11-17T04:48:11.662Z,9.10
2022-11-17T04:50:38.225Z,7.43
2022-11-17T04:53:04.851Z,8.25
2022-11-17T04:55:32.490Z,8.20
2022-11-17T04:57:59.049Z,10.63
2022-11-17T05:00:25.653Z,7.75
2022-11-17T05:02:52.231Z,10.25
2022-11-17T05:05:18.818Z,9.05
2022-11-17T05:07:45.502Z,8.60
2022-11-17T05:10:13.825Z,8.13
2022-11-17T05:12:58.910Z,7.18
2022-11-17T05:15:45.524Z,7.30
2022-11-17T05:18:12.130Z,8.63
2022-11-17T05:20:38.718Z,9.27
2022-11-17T05:23:24.129Z,7.38
2022-11-17T05:25:53.781Z,8.88
2022-11-17T05:28:20.367Z,7.82
2022-11-17T05:30:47.295Z,8.65
2022-11-17T05:33:13.882Z,12.25
2022-11-17T05:35:40.591Z,9.13
2022-11-17T05:38:07.169Z,9.15
2022-11-17T05:40:33.774Z,7.55
2022-11-17T05:43:00.356Z,10.02
2022-11-17T05:45:26.951Z,7.95
2022-11-17T05:47:53.542Z,8.02
2022-11-17T05:50:20.123Z,7.20
2022-11-17T05:52:46.706Z,8.10
2022-11-17T05:55:13.470Z,7.03
2022-11-17T05:57:40.757Z,5.75
2022-11-17T06:00:08.810Z,6.80
2022-11-17T06:02:45.777Z,6.93
2022-11-17T06:05:18.713Z,3.63
2022-11-17T06:07:46.925Z,5.25
2022-11-17T06:10:13.531Z,5.35
2022-11-17T06:12:40.097Z,5.70
2022-11-17T06:15:07.024Z,7.65
2022-11-17T06:18:08.944Z,5.05
2022-11-17T06:20:41.149Z,4.78
2022-11-17T06:23:09.052Z,5.32
2022-11-17T06:25:37.525Z,5.75
2022-11-17T06:28:07.148Z,6.15
2022-11-17T06:30:35.346Z,5.38
2022-11-17T06:33:02.604Z,4.53
2022-11-17T06:35:33.402Z,5.03
2022-11-17T06:38:01.287Z,8.18
2022-11-17T06:40:28.751Z,4.97
2022-11-17T06:43:08.229Z,6.15
2022-11-17T06:45:39.676Z,5.85
2022-11-17T06:48:07.962Z,7.80
2022-11-17T06:50:34.795Z,6.00
2022-11-17T06:53:05.468Z,8.93
2022-11-17T06:55:32.557Z,6.43
2022-11-17T06:58:04.800Z,6.75
2022-11-17T07:00:31.529Z,5.55
2022-11-17T07:03:06.824Z,6.97
2022-11-17T07:05:35.392Z,6.50
2022-11-17T07:08:08.041Z,6.50
2022-11-17T07:10:35.993Z,4.75
2022-11-17T07:13:03.217Z,5.72
2022-11-17T07:15:30.372Z,6.15
2022-11-17T07:17:58.064Z,6.35
2022-11-17T07:20:24.736Z,5.50
2022-11-17T07:22:51.489Z,6.95
2022-11-17T07:25:22.303Z,5.90
2022-11-17T07:27:49.341Z,4.60
2022-11-17T07:30:16.214Z,5.45
2022-11-17T07:32:42.862Z,5.68
2022-11-17T07:35:09.708Z,4.00
2022-11-17T07:37:36.366Z,6.28
2022-11-17T07:40:03.356Z,6.45
2022-11-17T07:42:31.153Z,4.63
2022-11-17T07:44:57.977Z,3.60
2022-11-17T07:47:24.685Z,4.18
2022-11-17T07:49:51.357Z,4.82
2022-11-17T07:52:18.007Z,5.70
2022-11-17T07:54:44.713Z,5.45
2022-11-17T07:57:11.428Z,3.88
2022-11-17T07:59:38.055Z,3.85
2022-11-17T08:02:04.749Z,3.53
2022-11-17T08:04:31.424Z,3.60
2022-11-17T08:06:58.104Z,4.57
2022-11-17T08:09:24.807Z,3.95
2022-11-17T08:11:52.022Z,3.63
2022-11-17T08:14:18.746Z,4.35
2022-11-17T08:16:45.440Z,4.57
2022-11-17T08:19:12.207Z,5.32
2022-11-17T08:21:39.853Z,4.50
2022-11-17T08:24:07.183Z,4.35
2022-11-17T08:26:33.880Z,4.65
2022-11-17T08:29:01.837Z,4.25
2022-11-17T08:31:28.487Z,5.22
2022-11-17T08:33:55.610Z,4.78
2022-11-17T08:36:22.326Z,5.47
2022-11-17T08:38:49.008Z,4.13
2022-11-17T08:41:15.800Z,3.05
2022-11-17T08:43:42.502Z,6.78
2022-11-17T08:46:12.602Z,4.97
2022-11-17T08:48:39.901Z,6.65
2022-11-17T08:51:08.335Z,6.00
2022-11-17T08:53:35.065Z,3.47
2022-11-17T08:56:01.723Z,4.78
2022-11-17T08:58:28.313Z,5.15
2022-11-17T09:00:54.995Z,5.30
2022-11-17T09:03:21.743Z,4.63
2022-11-17T09:05:48.530Z,3.72
2022-11-17T09:08:44.061Z,3.28
2022-11-17T09:11:11.056Z,2.95
2022-11-17T09:13:38.555Z,2.47
2022-11-17T09:16:08.764Z,3.70
2022-11-17T09:18:38.102Z,3.63
2022-11-17T09:21:11.004Z,4.03
2022-11-17T09:23:38.371Z,3.85
2022-11-17T09:26:11.580Z,3.05
2022-11-17T09:28:38.974Z,3.47
2022-11-17T09:31:11.227Z,2.88
2022-11-17T09:33:38.183Z,2.42
2022-11-17T09:36:07.305Z,6.28
2022-11-17T09:38:35.037Z,3.30
2022-11-17T09:41:29.891Z,4.68
2022-11-17T09:44:04.036Z,3.80
2022-11-17T09:47:07.237Z,2.53
2022-11-17T09:49:41.770Z,3.28
2022-11-17T09:52:22.311Z,2.85
2022-11-17T09:55:04.088Z,4.50
2022-11-17T09:57:42.249Z,3.42
2022-11-17T10:00:22.756Z,2.85
2022-11-17T10:02:51.238Z,3.85
2022-11-17T10:05:34.301Z,2.75
2022-11-17T10:08:08.943Z,4.68
2022-11-17T10:10:42.269Z,2.63
2022-11-17T10:13:25.133Z,2.50
2022-11-17T10:15:57.273Z,2.42
2022-11-17T10:18:23.961Z,2.80
2022-11-17T10:20:51.330Z,2.17
2022-11-17T10:23:20.167Z,1.83
2022-11-17T10:25:49.319Z,2.58
2022-11-17T10:28:26.965Z,1.58
2022-11-17T10:31:10.249Z,2.78
2022-11-17T10:33:49.431Z,3.35
2022-11-17T10:36:32.648Z,5.22
2022-11-17T10:39:00.735Z,5.47
2022-11-17T10:41:37.531Z,4.93
2022-11-17T10:44:24.582Z,3.67
2022-11-17T10:47:02.719Z,5.78
2022-11-17T10:49:35.292Z,4.43
2022-11-17T10:52:09.394Z,4.50
2022-11-17T10:54:36.111Z,3.88
2022-11-17T10:57:08.267Z,2.92
2022-11-17T10:59:52.086Z,4.78
2022-11-17T11:02:39.390Z,4.43
2022-11-17T11:05:17.957Z,4.43
2022-11-17T11:07:44.818Z,4.07
2022-11-17T11:10:35.045Z,5.05
2022-11-17T11:13:12.763Z,3.75
2022-11-17T11:15:39.582Z,3.20
2022-11-17T11:18:13.706Z,4.55
2022-11-17T11:20:47.684Z,4.72
2022-11-17T11:23:30.847Z,5.63
2022-11-17T11:26:24.999Z,4.70
2022-11-17T11:29:03.235Z,6.13
2022-11-17T11:31:47.998Z,5.28
2022-11-17T11:34:19.722Z,5.20
2022-11-17T11:37:07.986Z,3.72
2022-11-17T11:39:34.634Z,3.78
2022-11-17T11:42:08.392Z,5.07
2022-11-17T11:44:50.262Z,5.40
2022-11-17T11:47:32.140Z,4.95
2022-11-17T11:50:16.956Z,3.30
2022-11-17T11:53:08.554Z,4.05
2022-11-17T11:55:36.415Z,3.47
2022-11-17T11:58:14.737Z,3.45
2022-11-17T12:00:44.009Z,4.40
2022-11-17T12:03:22.093Z,3.45
2022-11-17T12:06:26.955Z,3.75
2022-11-17T12:09:10.316Z,4.18
2022-11-17T12:11:59.670Z,4.50
2022-11-17T12:14:31.245Z,3.63
2022-11-17T12:17:26.150Z,5.22
2022-11-17T12:19:58.806Z,4.90
2022-11-17T12:22:32.182Z,3.15
2022-11-17T12:25:23.443Z,32.60
2022-11-17T12:27:53.790Z,97.85
2022-11-17T12:30:38.546Z,21.48
2022-11-17T12:33:07.908Z,12.45
2022-11-17T12:35:36.997Z,4.90
2022-11-17T12:38:16.392Z,5.45
2022-11-17T12:40:45.548Z,6.38
2022-11-17T12:43:15.374Z,6.10
2022-11-17T12:46:13.337Z,4.75
2022-11-17T12:48:50.323Z,7.03
2022-11-17T12:51:39.940Z,6.65
2022-11-17T12:54:15.877Z,5.55
2022-11-17T12:56:57.842Z,6.47
2022-11-17T12:59:38.052Z,7.65
2022-11-17T13:02:31.946Z,7.65
2022-11-17T13:05:03.754Z,5.82
2022-11-17T13:07:30.515Z,4.35
2022-11-17T13:10:01.873Z,5.43
2022-11-17T13:12:33.346Z,5.97
2022-11-17T13:15:02.754Z,4.40
2022-11-17T13:17:43.532Z,4.55
2022-11-17T13:20:25.069Z,5.32
2022-11-17T13:23:06.640Z,5.72
2022-11-17T13:25:34.404Z,6.93
2022-11-17T13:28:04.655Z,4.82
2022-11-17T13:30:32.963Z,5.32
2022-11-17T13:33:02.320Z,4.47
2022-11-17T13:35:30.172Z,4.32
2022-11-17T13:38:12.167Z,5.82
2022-11-17T13:40:41.114Z,6.97
2022-11-17T13:43:12.815Z,3.42
2022-11-17T13:45:40.641Z,4.95
2022-11-17T13:48:27.243Z,3.08
2022-11-17T13:50:53.906Z,5.75
2022-11-17T13:53:26.139Z,4.53
2022-11-17T13:55:53.323Z,5.50
2022-11-17T13:58:26.544Z,7.13
2022-11-17T14:00:57.077Z,5.75
2022-11-17T14:03:37.107Z,5.63
2022-11-17T14:06:12.231Z,4.25
2022-11-17T14:08:40.511Z,5.10
2022-11-17T14:11:10.108Z,5.00
2022-11-17T14:13:49.596Z,5.50
2022-11-17T14:16:36.341Z,5.22
2022-11-17T14:19:24.679Z,5.00
2022-11-17T14:22:27.663Z,5.40
2022-11-17T14:24:57.455Z,4.53
2022-11-17T14:27:29.918Z,4.18
2022-11-17T14:32:23.155Z,4.85
2022-11-17T14:34:49.731Z,4.28
2022-11-17T14:37:16.777Z,7.03
2022-11-17T14:39:43.593Z,5.15
2022-11-17T14:42:14.139Z,2.83
2022-11-17T14:44:40.737Z,5.63
2022-11-17T14:47:07.551Z,3.08
2022-11-17T14:49:34.159Z,4.20
2022-11-17T14:52:02.382Z,3.85
2022-11-17T14:54:29.057Z,2.88
2022-11-17T14:56:55.697Z,4.90
2022-11-17T14:59:22.314Z,3.97
2022-11-17T15:01:48.998Z,7.30
2022-11-17T15:04:48.733Z,3.15
2022-11-17T15:07:05.171Z,2.28
2022-11-17T15:09:32.019Z,3.30
2022-11-17T15:11:58.767Z,3.30
2022-11-17T15:14:25.722Z,2.85
2022-11-17T15:16:52.437Z,3.35
2022-11-17T15:19:19.295Z,4.05
2022-11-17T15:21:45.943Z,5.88
2022-11-17T15:24:13.157Z,6.25
2022-11-17T15:26:40.126Z,4.05
2022-11-17T15:29:06.793Z,3.97
2022-11-17T15:31:33.486Z,2.83
2022-11-17T15:34:01.745Z,2.95
2022-11-17T15:36:28.410Z,2.65
2022-11-17T15:38:56.172Z,1.48
2022-11-17T15:41:22.868Z,3.10
2022-11-17T15:43:49.701Z,3.20
2022-11-17T15:46:18.102Z,3.83
2022-11-17T15:48:46.655Z,4.75
2022-11-17T15:51:18.153Z,3.60
2022-11-17T15:53:49.513Z,4.63
2022-11-17T15:56:21.920Z,6.78
2022-11-17T15:58:54.276Z,3.97
2022-11-17T16:01:24.733Z,3.75
2022-11-17T16:03:52.455Z,5.88
2022-11-17T16:06:19.153Z,5.10
2022-11-17T16:08:45.795Z,4.55
2022-11-17T16:11:12.446Z,5.18
2022-11-17T16:13:39.342Z,4.53
2022-11-17T16:16:06.703Z,5.57
2022-11-17T16:18:34.631Z,4.63
2022-11-17T16:21:06.425Z,6.25
2022-11-17T16:23:40.891Z,5.40
2022-11-17T16:26:08.602Z,5.30
2022-11-17T16:28:35.360Z,6.28
2022-11-17T16:31:21.568Z,4.65
2022-11-17T16:33:50.252Z,6.00
2022-11-17T16:36:18.462Z,4.75
2022-11-17T16:39:13.620Z,6.57
2022-11-17T16:41:35.255Z,6.20
2022-11-17T16:44:06.252Z,5.15
2022-11-17T16:46:32.945Z,4.93
2022-11-17T16:49:07.230Z,5.93
2022-11-17T16:51:34.799Z,5.82
2022-11-17T16:54:03.769Z,3.20
2022-11-17T16:56:31.262Z,3.65
2022-11-17T16:58:58.794Z,4.78
2022-11-17T17:01:27.705Z,6.97
2022-11-17T17:04:12.550Z,6.18
2022-11-17T17:06:41.593Z,10.95
2022-11-17T17:09:09.732Z,14.07
2022-11-17T17:11:37.552Z,25.83
2022-11-17T17:14:06.304Z,18.52
2022-11-17T17:16:35.533Z,13.90
2022-11-17T17:19:04.270Z,10.18
2022-11-17T17:21:31.751Z,10.82
2022-11-17T17:23:58.425Z,7.38
2022-11-17T17:26:27.536Z,8.73
2022-11-17T17:28:55.951Z,8.50
2022-11-17T17:31:23.743Z,9.90
2022-11-17T17:33:51.469Z,11.75
2022-11-17T17:36:20.480Z,9.38
2022-11-17T17:38:51.799Z,9.93
2022-11-17T17:41:23.478Z,9.15
2022-11-17T17:43:58.566Z,8.65
2022-11-17T17:46:25.683Z,9.52
2022-11-17T17:48:52.470Z,10.65
2022-11-17T17:51:21.073Z,9.90
2022-11-17T17:53:50.452Z,8.48
2022-11-17T17:56:19.050Z,9.25
2022-11-17T17:58:48.019Z,9.32
2022-11-17T18:01:26.047Z,8.88
2022-11-17T18:04:00.084Z,8.93
2022-11-17T18:06:27.204Z,10.52
2022-11-17T18:08:53.847Z,10.48
2022-11-17T18:11:20.979Z,14.30
2022-11-17T18:13:50.189Z,14.98
2022-11-17T18:16:22.647Z,13.27
2022-11-17T18:21:19.945Z,13.35
2022-11-17T18:23:46.631Z,11.02
2022-11-17T18:26:18.185Z,10.63
2022-11-17T18:28:50.931Z,12.00
2022-11-17T18:31:17.618Z,12.18
2022-11-17T18:33:45.278Z,11.23
2022-11-17T18:36:12.381Z,8.70
2022-11-17T18:38:39.282Z,8.15
2022-11-17T18:41:10.140Z,9.35
2022-11-17T18:43:37.503Z,7.88
2022-11-17T18:46:19.511Z,8.25
2022-11-17T18:48:48.688Z,11.00
2022-11-17T18:51:19.972Z,7.97
2022-11-17T18:53:47.863Z,10.77
2022-11-17T18:56:16.207Z,12.45
2022-11-17T18:58:43.772Z,8.98
2022-11-17T19:01:14.463Z,9.23
2022-11-17T19:03:43.227Z,8.85
2022-11-17T19:06:12.314Z,10.93
2022-11-17T19:08:39.036Z,10.55
2022-11-17T19:11:07.257Z,10.63
2022-11-17T19:13:36.554Z,11.57
2022-11-17T19:16:15.145Z,11.65
2022-11-17T19:18:43.143Z,11.38
2022-11-17T19:21:15.567Z,14.52
2022-11-17T19:23:49.539Z,14.48
2022-11-17T19:26:23.214Z,15.50
2022-11-17T19:28:50.410Z,15.77
2022-11-17T19:31:18.910Z,15.15
2022-11-17T19:33:47.393Z,14.10
2022-11-17T19:36:20.018Z,14.82
2022-11-17T19:38:52.046Z,18.05
2022-11-17T19:41:27.533Z,15.73
2022-11-17T19:43:55.668Z,15.57
2022-11-17T19:46:23.675Z,16.88
2022-11-17T19:48:50.652Z,16.10
2022-11-17T19:51:20.372Z,14.82
2022-11-17T19:53:52.891Z,12.48
2022-11-17T19:56:20.359Z,11.68
2022-11-17T19:58:47.977Z,11.32
2022-11-17T20:01:26.184Z,12.30
2022-11-17T20:03:54.010Z,14.13
2022-11-17T20:06:24.200Z,12.43
2022-11-17T20:08:50.838Z,13.38
2022-11-17T20:11:22.968Z,12.63
2022-11-17T20:13:50.093Z,15.85
2022-11-17T20:16:19.485Z,16.67
2022-11-17T20:18:50.625Z,14.93
2022-11-17T20:21:17.602Z,15.13
2022-11-17T20:23:44.683Z,15.15
2022-11-17T20:26:18.139Z,14.57
2022-11-17T20:28:45.067Z,13.13
2022-11-17T20:31:29.451Z,14.93
2022-11-17T20:33:58.142Z,15.35
2022-11-17T20:36:24.987Z,16.48
2022-11-17T20:38:53.042Z,16.48
2022-11-17T20:41:21.173Z,15.57
2022-11-17T20:43:49.234Z,17.48
2022-11-17T20:46:16.329Z,11.50
2022-11-17T20:48:43.192Z,15.32
2022-11-17T20:51:11.993Z,14.60
2022-11-17T20:53:39.523Z,13.25
2022-11-17T20:56:08.329Z,10.88
2022-11-17T20:58:35.451Z,11.82
2022-11-17T21:01:10.679Z,14.00
2022-11-17T21:03:37.994Z,10.98
2022-11-17T21:06:05.554Z,11.52
2022-11-17T21:08:37.226Z,10.10
2022-11-17T21:11:06.415Z,10.80
2022-11-17T21:13:34.855Z,10.52
2022-11-17T21:16:10.713Z,16.05
2022-11-17T21:18:39.343Z,12.52
2022-11-17T21:21:09.293Z,11.85
2022-11-17T21:23:37.654Z,11.40
2022-11-17T21:26:09.112Z,11.10
2022-11-17T21:28:37.043Z,9.68
2022-11-17T21:31:15.019Z,11.40
2022-11-17T21:33:42.697Z,10.00
2022-11-17T21:36:12.135Z,10.30
2022-11-17T21:38:39.528Z,13.15
2022-11-17T21:41:10.124Z,9.55
2022-11-17T21:43:38.414Z,11.88
2022-11-17T21:46:07.339Z,9.70
2022-11-17T21:48:35.231Z,8.75
2022-11-17T21:51:02.234Z,16.20
2022-11-17T21:53:29.783Z,12.93
2022-11-17T21:56:05.344Z,14.60
2022-11-17T21:58:33.368Z,14.45
2022-11-17T22:01:07.647Z,15.85
2022-11-17T22:03:34.731Z,12.90
2022-11-17T22:06:13.835Z,13.25
2022-11-17T22:08:42.274Z,10.52
2022-11-17T22:11:35.141Z,13.75
2022-11-17T22:14:13.264Z,11.85
2022-11-17T22:16:47.820Z,9.50
2022-11-17T22:19:16.364Z,14.45
2022-11-17T22:21:44.077Z,10.27
2022-11-17T22:24:12.061Z,11.45
2022-11-17T22:26:41.009Z,12.35
2022-11-17T22:29:17.353Z,10.63
2022-11-17T22:31:45.399Z,10.90
2022-11-17T22:34:15.354Z,10.52
2022-11-17T22:36:43.630Z,10.63
2022-11-17T22:39:10.398Z,10.30
2022-11-17T22:41:37.228Z,9.77
2022-11-17T22:44:04.093Z,10.80
2022-11-17T22:46:30.884Z,11.00
2022-11-17T22:48:57.520Z,10.52
2022-11-17T22:51:43.532Z,10.20
2022-11-17T22:54:10.263Z,12.75
2022-11-17T22:56:36.950Z,13.13
2022-11-17T22:59:04.054Z,8.98
2022-11-17T23:01:30.806Z,9.05
2022-11-17T23:03:57.571Z,9.88
2022-11-17T23:06:24.318Z,8.27
2022-11-17T23:08:51.270Z,12.10
2022-11-17T23:14:06.889Z,11.07
2022-11-17T23:16:33.606Z,10.38
2022-11-17T23:19:00.274Z,10.00
2022-11-17T23:21:27.093Z,10.93
2022-11-17T23:23:53.684Z,10.02
2022-11-17T23:26:20.586Z,8.88
2022-11-17T23:28:47.178Z,10.45
2022-11-17T23:31:15.628Z,10.45
2022-11-17T23:33:44.528Z,11.75
2022-11-17T23:36:19.477Z,15.95
2022-11-17T23:38:46.990Z,10.57
2022-11-17T23:41:15.090Z,10.15
2022-11-17T23:43:42.436Z,9.30
2022-11-17T23:46:14.399Z,10.60
2022-11-17T23:48:42.301Z,11.63
2022-11-17T23:51:20.756Z,8.10
2022-11-17T23:53:49.317Z,11.10
2022-11-17T23:56:16.757Z,8.93
2022-11-17T23:58:44.082Z,9.35
